Time;durP1;ratioP1;P1;durP2;ratioP2;P2;SDS_P1;SDS_P2;PMS_P1;PMS_P2;Temp;Humidity;BMP_temperature;BMP_pressure;BME280_temperature;BME280_humidity;BME280_pressure;Samples;Min_cycle;Max_cycle;Signal;HPM_P1;HPM_P2
2023/09/06 00:01:37;;;;;;;4.7;3.2;;;;;;;;;;;;;
2023/09/06 00:04:02;;;;;;;4.5;3.4;;;;;;;;;;;;;
2023/09/06 00:06:30;;;;;;;4.1;3;;;;;;;;;;;;;
2023/09/06 00:08:52;;;;;;;4.3;3.7;;;;;;;;;;;;;
2023/09/06 00:11:18;;;;;;;5;4.4;;;;;;;;;;;;;
2023/09/06 00:13:44;;;;;;;4.7;3.9;;;;;;;;;;;;;
2023/09/06 00:16:09;;;;;;;3.9;3.5;;;;;;;;;;;;;
2023/09/06 00:18:35;;;;;;;5.9;3.5;;;;;;;;;;;;;
2023/09/06 00:20:59;;;;;;;4.6;3.5;;;;;;;;;;;;;
2023/09/06 00:23:25;;;;;;;5.7;3.6;;;;;;;;;;;;;
2023/09/06 00:25:50;;;;;;;4.3;3.5;;;;;;;;;;;;;
2023/09/06 00:28:15;;;;;;;4.2;3.4;;;;;;;;;;;;;
2023/09/06 00:30:44;;;;;;;3.6;3.2;;;;;;;;;;;;;
2023/09/06 00:33:05;;;;;;;5.7;3.4;;;;;;;;;;;;;
2023/09/06 00:35:31;;;;;;;3.5;3.2;;;;;;;;;;;;;
2023/09/06 00:37:56;;;;;;;5.3;3.5;;;;;;;;;;;;;
2023/09/06 00:40:22;;;;;;;4;3.2;;;;;;;;;;;;;
2023/09/06 00:42:47;;;;;;;7.4;3.6;;;;;;;;;;;;;
2023/09/06 00:45:13;;;;;;;3.6;3.3;;;;;;;;;;;;;
2023/09/06 00:47:38;;;;;;;3.6;3.3;;;;;;;;;;;;;
2023/09/06 00:50:07;;;;;;;5.3;3.3;;;;;;;;;;;;;
2023/09/06 00:52:32;;;;;;;6.1;3.4;;;;;;;;;;;;;
2023/09/06 00:55:01;;;;;;;3.5;3.2;;;;;;;;;;;;;
2023/09/06 00:57:22;;;;;;;4.3;3.5;;;;;;;;;;;;;
2023/09/06 00:59:48;;;;;;;4.2;3.3;;;;;;;;;;;;;
2023/09/06 01:02:12;;;;;;;5;3.4;;;;;;;;;;;;;
2023/09/06 01:04:39;;;;;;;4.6;3.1;;;;;;;;;;;;;
2023/09/06 01:07:03;;;;;;;3.7;3.2;;;;;;;;;;;;;
2023/09/06 01:09:30;;;;;;;3.9;3.1;;;;;;;;;;;;;
2023/09/06 01:11:54;;;;;;;4.3;3.3;;;;;;;;;;;;;
2023/09/06 01:14:20;;;;;;;4.2;3.4;;;;;;;;;;;;;
2023/09/06 01:16:47;;;;;;;4.1;3.3;;;;;;;;;;;;;
2023/09/06 01:19:11;;;;;;;4.3;3.3;;;;;;;;;;;;;
2023/09/06 01:21:37;;;;;;;5.6;3.4;;;;;;;;;;;;;
2023/09/06 01:24:02;;;;;;;5.2;3.6;;;;;;;;;;;;;
2023/09/06 01:26:27;;;;;;;4.5;3.6;;;;;;;;;;;;;
2023/09/06 01:28:52;;;;;;;4.2;3.7;;;;;;;;;;;;;
2023/09/06 01:31:17;;;;;;;4.2;3.3;;;;;;;;;;;;;
2023/09/06 01:33:43;;;;;;;3.6;3.1;;;;;;;;;;;;;
2023/09/06 01:36:11;;;;;;;3.5;3.2;;;;;;;;;;;;;
2023/09/06 01:38:37;;;;;;;3.5;3.1;;;;;;;;;;;;;
2023/09/06 01:41:03;;;;;;;3.5;3.2;;;;;;;;;;;;;
2023/09/06 01:43:31;;;;;;;3.9;3.4;;;;;;;;;;;;;
2023/09/06 01:45:54;;;;;;;3.6;2.9;;;;;;;;;;;;;
2023/09/06 01:48:19;;;;;;;4.4;3.5;;;;;;;;;;;;;
2023/09/06 01:50:44;;;;;;;5.7;3.3;;;;;;;;;;;;;
2023/09/06 01:53:09;;;;;;;6.5;3.6;;;;;;;;;;;;;
2023/09/06 01:55:34;;;;;;;3.2;2.9;;;;;;;;;;;;;
2023/09/06 01:57:59;;;;;;;3.6;3.2;;;;;;;;;;;;;
2023/09/06 02:00:27;;;;;;;5;3.5;;;;;;;;;;;;;
2023/09/06 02:02:49;;;;;;;4.2;3.2;;;;;;;;;;;;;
2023/09/06 02:05:16;;;;;;;4.6;3.3;;;;;;;;;;;;;
2023/09/06 02:07:42;;;;;;;4.8;3.4;;;;;;;;;;;;;
2023/09/06 02:10:07;;;;;;;4.7;3.5;;;;;;;;;;;;;
2023/09/06 02:12:31;;;;;;;4;3;;;;;;;;;;;;;
2023/09/06 02:14:58;;;;;;;5.9;4;;;;;;;;;;;;;
2023/09/06 02:17:22;;;;;;;7.2;4.9;;;;;;;;;;;;;
2023/09/06 02:19:47;;;;;;;231.3;100.6;;;;;;;;;;;;;
2023/09/06 02:22:13;;;;;;;65.4;30.7;;;;;;;;;;;;;
2023/09/06 02:24:39;;;;;;;23;11.4;;;;;;;;;;;;;
2023/09/06 02:27:05;;;;;;;6.8;4;;;;;;;;;;;;;
2023/09/06 02:29:28;;;;;;;6.5;3.6;;;;;;;;;;;;;
2023/09/06 02:31:56;;;;;;;4.3;3.3;;;;;;;;;;;;;
2023/09/06 02:34:21;;;;;;;4.1;3.3;;;;;;;;;;;;;
2023/09/06 02:36:46;;;;;;;4.1;3.2;;;;;;;;;;;;;
2023/09/06 02:39:13;;;;;;;3.7;3.3;;;;;;;;;;;;;
2023/09/06 02:41:37;;;;;;;4.2;3.5;;;;;;;;;;;;;
2023/09/06 02:44:02;;;;;;;5.2;3.3;;;;;;;;;;;;;
2023/09/06 02:46:29;;;;;;;5.9;4.2;;;;;;;;;;;;;
2023/09/06 02:48:53;;;;;;;6.9;3.5;;;;;;;;;;;;;
2023/09/06 02:51:20;;;;;;;5.1;3.1;;;;;;;;;;;;;
2023/09/06 02:53:45;;;;;;;4.3;3.2;;;;;;;;;;;;;
2023/09/06 02:56:13;;;;;;;5.5;3.9;;;;;;;;;;;;;
2023/09/06 02:58:37;;;;;;;6.1;3.5;;;;;;;;;;;;;
2023/09/06 03:01:05;;;;;;;4.6;3.4;;;;;;;;;;;;;
2023/09/06 03:03:28;;;;;;;3.8;3;;;;;;;;;;;;;
2023/09/06 03:05:53;;;;;;;3.9;3.1;;;;;;;;;;;;;
2023/09/06 03:08:18;;;;;;;4;3.6;;;;;;;;;;;;;
2023/09/06 03:10:45;;;;;;;4;3.1;;;;;;;;;;;;;
2023/09/06 03:13:10;;;;;;;3.9;3.1;;;;;;;;;;;;;
2023/09/06 03:15:36;;;;;;;3.4;3.1;;;;;;;;;;;;;
2023/09/06 03:18:02;;;;;;;4.3;3.6;;;;;;;;;;;;;
2023/09/06 03:20:33;;;;;;;4.5;3.4;;;;;;;;;;;;;
2023/09/06 03:22:53;;;;;;;4.2;3.2;;;;;;;;;;;;;
2023/09/06 03:25:20;;;;;;;3.6;3.3;;;;;;;;;;;;;
2023/09/06 03:27:44;;;;;;;3.9;3.3;;;;;;;;;;;;;
2023/09/06 03:30:14;;;;;;;4.6;3;;;;;;;;;;;;;
2023/09/06 03:32:36;;;;;;;3.7;3.3;;;;;;;;;;;;;
2023/09/06 03:35:01;;;;;;;5;3;;;;;;;;;;;;;
2023/09/06 03:37:28;;;;;;;5.5;3.2;;;;;;;;;;;;;
2023/09/06 03:39:53;;;;;;;4.6;3.2;;;;;;;;;;;;;
2023/09/06 03:42:16;;;;;;;3.6;3.3;;;;;;;;;;;;;
2023/09/06 03:44:42;;;;;;;4.5;3.4;;;;;;;;;;;;;
2023/09/06 03:47:13;;;;;;;3.5;3.2;;;;;;;;;;;;;
2023/09/06 03:49:32;;;;;;;5.2;3.3;;;;;;;;;;;;;
2023/09/06 03:51:57;;;;;;;4;3.5;;;;;;;;;;;;;
2023/09/06 03:54:24;;;;;;;4.2;3.3;;;;;;;;;;;;;
2023/09/06 03:56:49;;;;;;;4;3.4;;;;;;;;;;;;;
2023/09/06 03:59:13;;;;;;;4.2;3.2;;;;;;;;;;;;;
2023/09/06 04:02:31;;;;;;;3.9;3.5;;;;;;;13.69;100;941.1995;;;;
2023/09/06 04:04:56;;;;;;;4.7;3.7;;;;;;;13.73;100;941.202;;;;
2023/09/06 04:07:25;;;;;;;4.2;3.6;;;;;;;13.89;100;941.1984;;;;
2023/09/06 04:09:56;;;;;;;4.9;3.4;;;;;;;14.02;99.23535;941.2037;;;;
2023/09/06 04:12:14;;;;;;;3.7;3.2;;;;;;;14.12;97.93457;941.2214;;;;
2023/09/06 04:14:39;;;;;;;4.7;3.4;;;;;;;14.2;97.66504;941.1614;;;;
2023/09/06 04:17:07;;;;;;;5.1;3.4;;;;;;;14.23;97.41797;941.2371;;;;
2023/09/06 04:19:31;;;;;;;3.5;3.2;;;;;;;14.12;97.4873;941.1973;;;;
2023/09/06 04:21:58;;;;;;;4.3;2.7;;;;;;;14.12;97.2207;941.3103;;;;
2023/09/06 04:24:23;;;;;;;3.4;2.9;;;;;;;14.23;96.12793;941.3187;;;;
2023/09/06 04:26:48;;;;;;;3.6;3.1;;;;;;;14.15;96.1582;941.2815;;;;
2023/09/06 04:29:13;;;;;;;5;3.6;;;;;;;13.98;96.52148;941.3203;;;;
2023/09/06 04:31:41;;;;;;;4;3.3;;;;;;;13.85;97.83008;941.3433;;;;
2023/09/06 04:34:04;;;;;;;5;3.1;;;;;;;13.87;97.79688;941.3401;;;;
2023/09/06 04:36:31;;;;;;;3.8;3.4;;;;;;;13.85;98.27832;941.241;;;;
2023/09/06 04:38:57;;;;;;;6;3.5;;;;;;;13.79;98.96387;941.3325;;;;
2023/09/06 04:41:23;;;;;;;4.7;3.4;;;;;;;13.92;97.60254;941.3331;;;;
2023/09/06 04:43:49;;;;;;;4;3.1;;;;;;;13.99;96.09961;941.4116;;;;
2023/09/06 04:46:16;;;;;;;5.1;3.7;;;;;;;14.03;95.57813;941.464;;;;
2023/09/06 04:48:42;;;;;;;4.1;3.5;;;;;;;13.99;95.84766;941.4387;;;;
2023/09/06 04:51:09;;;;;;;4.1;3.3;;;;;;;13.96;96.16016;941.5405;;;;
2023/09/06 04:53:35;;;;;;;4.1;3.4;;;;;;;13.84;96.97656;941.5106;;;;
2023/09/06 04:56:06;;;;;;;4.5;3.4;;;;;;;13.88;97.21484;941.5347;;;;
2023/09/06 04:58:33;;;;;;;4.8;3.4;;;;;;;13.93;96.62598;941.5421;;;;
2023/09/06 05:00:58;;;;;;;3.9;3.3;;;;;;;14.02;95.95508;941.5697;;;;
2023/09/06 05:03:26;;;;;;;4.7;3.2;;;;;;;14.08;95.77344;941.6082;;;;
2023/09/06 05:05:51;;;;;;;4.9;3.3;;;;;;;14.09;95.71777;941.6145;;;;
2023/09/06 05:08:20;;;;;;;5.3;3.7;;;;;;;14.04;95.37207;941.5641;;;;
2023/09/06 05:10:44;;;;;;;4.5;3.3;;;;;;;13.98;95.93359;941.715;;;;
2023/09/06 05:13:12;;;;;;;5.4;3.4;;;;;;;14.09;95.41699;941.6602;;;;
2023/09/06 05:15:37;;;;;;;4.7;3.6;;;;;;;14.16;94.95117;941.6908;;;;
2023/09/06 05:18:02;;;;;;;4.8;3.7;;;;;;;14.18;94.63281;941.6884;;;;
2023/09/06 05:20:28;;;;;;;6.3;5.1;;;;;;;14.21;94.55762;941.7637;;;;
2023/09/06 05:22:52;;;;;;;5.3;4.6;;;;;;;14.22;95.05664;941.7449;;;;
2023/09/06 05:25:18;;;;;;;5.6;3.9;;;;;;;14.26;94.88086;941.8754;;;;
2023/09/06 05:27:43;;;;;;;5.4;4.4;;;;;;;14.37;94.27051;941.841;;;;
2023/09/06 05:30:10;;;;;;;6.7;3.8;;;;;;;14.26;95.2373;941.7865;;;;
2023/09/06 05:32:34;;;;;;;6.1;3.9;;;;;;;14.23;95.27539;941.8273;;;;
2023/09/06 05:35:03;;;;;;;4.2;3.4;;;;;;;14.14;95.5459;941.7636;;;;
2023/09/06 05:37:26;;;;;;;4.5;4.1;;;;;;;14.11;95.71289;941.7508;;;;
2023/09/06 05:39:56;;;;;;;7.1;4.1;;;;;;;13.89;97.79199;941.7469;;;;
2023/09/06 05:42:21;;;;;;;4.8;4;;;;;;;14.09;97.91699;941.7675;;;;
2023/09/06 05:44:48;;;;;;;6;4.5;;;;;;;14.84;98.78906;941.7458;;;;
2023/09/06 05:47:13;;;;;;;5.4;3;;;;;;;15.69;91.7002;941.7785;;;;
2023/09/06 05:49:40;;;;;;;4.2;3.3;;;;;;;16.28;88.37891;941.7695;;;;
2023/09/06 05:52:05;;;;;;;4.1;3;;;;;;;16.86;84.0918;941.7533;;;;
2023/09/06 05:54:31;;;;;;;4.4;3.3;;;;;;;17.4;82.11914;941.7523;;;;
2023/09/06 05:56:56;;;;;;;3.6;2.7;;;;;;;18.19;77.72461;941.7502;;;;
2023/09/06 05:59:23;;;;;;;3;2.3;;;;;;;19.11;73.08984;941.6548;;;;
2023/09/06 06:01:47;;;;;;;2.9;2.6;;;;;;;19.78;71.03125;941.6779;;;;
2023/09/06 06:04:15;;;;;;;3.3;2.4;;;;;;;19.88;70.05566;941.6349;;;;
2023/09/06 06:06:39;;;;;;;2.9;2.6;;;;;;;19.78;70.0166;941.6834;;;;
2023/09/06 06:09:05;;;;;;;2.9;2.6;;;;;;;20.02;70.16016;941.717;;;;
2023/09/06 06:11:30;;;;;;;3;2.3;;;;;;;20.69;67.09863;941.7039;;;;
2023/09/06 06:13:59;;;;;;;3.7;2.6;;;;;;;21.3;64.48828;941.7026;;;;
2023/09/06 06:16:24;;;;;;;12.7;6.5;;;;;;;21.63;63.00391;941.6479;;;;
2023/09/06 06:18:50;;;;;;;6.9;4.1;;;;;;;20.9;64.54688;941.7151;;;;
2023/09/06 06:21:15;;;;;;;4.3;3.1;;;;;;;20.95;66.16895;941.7342;;;;
2023/09/06 06:23:43;;;;;;;3.8;2.9;;;;;;;21.91;61.87109;941.7043;;;;
2023/09/06 06:26:06;;;;;;;5.3;2.4;;;;;;;22.06;60.91895;941.7168;;;;
2023/09/06 06:28:32;;;;;;;3.1;2.4;;;;;;;22.38;59.98926;941.7166;;;;
2023/09/06 06:30:57;;;;;;;3.8;2.7;;;;;;;22.47;59.33203;941.7352;;;;
2023/09/06 06:33:25;;;;;;;3.2;2.3;;;;;;;22.33;59.85254;941.7787;;;;
2023/09/06 06:35:51;;;;;;;2.6;2.4;;;;;;;22.74;59.11035;941.7495;;;;
2023/09/06 06:38:17;;;;;;;3;2.3;;;;;;;23.44;58.65039;941.7392;;;;
2023/09/06 06:40:42;;;;;;;3.7;2.4;;;;;;;23.85;58.18555;941.6719;;;;
2023/09/06 06:43:07;;;;;;;2.4;2;;;;;;;24.23;55.98535;941.676;;;;
2023/09/06 06:45:33;;;;;;;2.9;2.5;;;;;;;24.48;55.65137;941.668;;;;
2023/09/06 06:47:58;;;;;;;3.7;2.8;;;;;;;23.84;55.98535;941.7086;;;;
2023/09/06 06:50:24;;;;;;;4.7;2.3;;;;;;;24.14;55.63281;941.7388;;;;
2023/09/06 06:52:49;;;;;;;2.6;2.4;;;;;;;24.06;55.37598;941.7367;;;;
2023/09/06 06:55:17;;;;;;;4.8;2.3;;;;;;;24.07;54.51758;941.8047;;;;
2023/09/06 06:57:42;;;;;;;5.6;2.7;;;;;;;24.45;54.52734;941.8459;;;;
2023/09/06 07:00:11;;;;;;;2.5;2.3;;;;;;;23.87;59.02539;941.8337;;;;
2023/09/06 07:02:34;;;;;;;2.3;2.1;;;;;;;23.07;63.13672;941.7755;;;;
2023/09/06 07:05:01;;;;;;;2.9;2.6;;;;;;;22.04;68.24121;941.8583;;;;
2023/09/06 07:07:26;;;;;;;3.3;2.7;;;;;;;21.45;70.0127;941.9404;;;;
2023/09/06 07:09:52;;;;;;;2.7;2.5;;;;;;;21.39;72.48535;941.8823;;;;
2023/09/06 07:12:17;;;;;;;3.1;2.6;;;;;;;22.01;66.11621;941.9108;;;;
2023/09/06 07:14:44;;;;;;;3;2.7;;;;;;;22.05;69.62598;941.8939;;;;
2023/09/06 07:17:09;;;;;;;3.5;2.6;;;;;;;22.29;66.66309;941.9025;;;;
2023/09/06 07:19:35;;;;;;;2.8;2.4;;;;;;;22.72;64.50684;941.9241;;;;
2023/09/06 07:22:01;;;;;;;2.8;2.6;;;;;;;23.79;61.74414;941.9072;;;;
2023/09/06 07:24:28;;;;;;;5.8;2.8;;;;;;;22.78;64.22363;941.9049;;;;
2023/09/06 07:26:53;;;;;;;4;2.9;;;;;;;24.05;61.79395;941.8972;;;;
2023/09/06 07:29:19;;;;;;;3.6;2.7;;;;;;;24.72;59.47949;941.8918;;;;
2023/09/06 07:31:44;;;;;;;7;2.7;;;;;;;25.78;55.64941;941.8689;;;;
2023/09/06 07:34:11;;;;;;;4.3;2.6;;;;;;;26.31;52.10547;941.8503;;;;
2023/09/06 07:36:36;;;;;;;3;2.7;;;;;;;26.53;50.85156;941.8137;;;;
2023/09/06 07:39:02;;;;;;;3.8;2.3;;;;;;;27.92;48.32617;941.8201;;;;
2023/09/06 07:41:27;;;;;;;3;2.4;;;;;;;28.86;46.90332;941.8541;;;;
2023/09/06 07:43:54;;;;;;;2.8;2.2;;;;;;;28.23;45.03027;941.8069;;;;
2023/09/06 07:46:21;;;;;;;3;2.5;;;;;;;29.72;43.18848;941.8325;;;;
2023/09/06 07:48:49;;;;;;;2.8;2.1;;;;;;;29.71;42.90234;941.796;;;;
2023/09/06 07:51:14;;;;;;;2.7;2.2;;;;;;;29.57;42.06641;941.7661;;;;
2023/09/06 07:53:41;;;;;;;3.9;2.4;;;;;;;30.21;40.70508;941.7706;;;;
2023/09/06 07:56:07;;;;;;;2.6;2.2;;;;;;;29.81;42.00488;941.8139;;;;
2023/09/06 07:58:33;;;;;;;3.4;2.5;;;;;;;27.68;43.1123;941.757;;;;
2023/09/06 08:00:58;;;;;;;3;2.4;;;;;;;27.02;46.8418;941.7228;;;;
2023/09/06 08:03:23;;;;;;;5.6;2.8;;;;;;;26.93;47.44922;941.7225;;;;
2023/09/06 08:05:49;;;;;;;4.8;2.3;;;;;;;27.33;47.39648;941.6989;;;;
2023/09/06 08:08:16;;;;;;;3;2.3;;;;;;;27.12;48.00195;941.579;;;;
2023/09/06 08:10:41;;;;;;;3.3;2.3;;;;;;;26.65;50.55957;941.6317;;;;
2023/09/06 08:13:07;;;;;;;4.9;2.7;;;;;;;25.95;49.63965;941.5617;;;;
2023/09/06 08:15:32;;;;;;;3.4;2.7;;;;;;;26.52;48.44727;941.5292;;;;
2023/09/06 08:18:00;;;;;;;3.6;2.5;;;;;;;26.85;48.11621;941.5375;;;;
2023/09/06 08:20:24;;;;;;;3.3;2.6;;;;;;;27.48;47.15137;941.4549;;;;
2023/09/06 08:22:50;;;;;;;2.5;2.2;;;;;;;26.91;46.72363;941.4916;;;;
2023/09/06 08:25:15;;;;;;;3.7;2.4;;;;;;;27.19;46.80078;941.4617;;;;
2023/09/06 08:27:40;;;;;;;3.6;2.4;;;;;;;27.66;47.36035;941.4503;;;;
2023/09/06 08:30:10;;;;;;;4;2.6;;;;;;;27.72;45.37207;941.4769;;;;
2023/09/06 08:32:33;;;;;;;4;2.6;;;;;;;27.76;45.25684;941.4456;;;;
2023/09/06 08:34:59;;;;;;;3.8;2.8;;;;;;;27.94;44.53906;941.4064;;;;
2023/09/06 08:37:24;;;;;;;2.8;2.4;;;;;;;27.84;43.50781;941.3865;;;;
2023/09/06 08:39:53;;;;;;;2.9;2.4;;;;;;;27.8;44.35938;941.3898;;;;
2023/09/06 08:42:18;;;;;;;3.9;2.5;;;;;;;28.08;44.35156;941.4214;;;;
2023/09/06 08:44:43;;;;;;;2.9;2.6;;;;;;;28.16;44.09766;941.3773;;;;
2023/09/06 08:47:08;;;;;;;3.3;2.6;;;;;;;28.46;44.99512;941.3864;;;;
2023/09/06 08:49:33;;;;;;;3.7;2.6;;;;;;;28.25;45.35449;941.3563;;;;
2023/09/06 08:51:59;;;;;;;2.8;2.5;;;;;;;28.41;44.8584;941.2889;;;;
2023/09/06 08:54:24;;;;;;;2.8;2.5;;;;;;;28.73;43.72559;941.3524;;;;
2023/09/06 08:56:53;;;;;;;4.5;2.4;;;;;;;28.24;47.12305;941.325;;;;
2023/09/06 08:59:17;;;;;;;3.3;3;;;;;;;26.83;51.89355;941.3136;;;;
2023/09/06 09:01:43;;;;;;;3.5;2.4;;;;;;;27.67;50.36426;941.2919;;;;
2023/09/06 09:04:09;;;;;;;2.6;2.4;;;;;;;26.91;50.72949;941.2863;;;;
2023/09/06 09:06:36;;;;;;;4.6;2.7;;;;;;;26.97;54.32715;941.3055;;;;
2023/09/06 09:09:01;;;;;;;3.4;3;;;;;;;26.58;54.0791;941.3181;;;;
2023/09/06 09:11:25;;;;;;;3.9;3.2;;;;;;;26.26;57.41211;941.2886;;;;
2023/09/06 09:13:51;;;;;;;4.5;2.8;;;;;;;26.2;58.11523;941.3487;;;;
2023/09/06 09:16:16;;;;;;;5.6;2.8;;;;;;;25.99;61.04297;941.2556;;;;
2023/09/06 09:18:42;;;;;;;3.8;2.8;;;;;;;26.18;58.67871;941.3181;;;;
2023/09/06 09:21:08;;;;;;;4;2.9;;;;;;;25.71;59.28027;941.3387;;;;
2023/09/06 09:23:35;;;;;;;3.2;2.7;;;;;;;25.78;59.1709;941.3315;;;;
2023/09/06 09:26:00;;;;;;;3.3;2.7;;;;;;;25.81;59.93262;941.3006;;;;
2023/09/06 09:28:25;;;;;;;3.7;2.8;;;;;;;25.85;58.84961;941.2977;;;;
2023/09/06 09:30:51;;;;;;;3.4;2.6;;;;;;;25.66;57.71387;941.295;;;;
2023/09/06 09:33:16;;;;;;;3;2.7;;;;;;;25.46;61.7627;941.305;;;;
2023/09/06 09:35:43;;;;;;;3;2.7;;;;;;;25.49;60.75098;941.2369;;;;
2023/09/06 09:38:07;;;;;;;4.1;2.8;;;;;;;25.01;60.91016;941.2941;;;;
2023/09/06 09:40:34;;;;;;;3.4;3;;;;;;;25;61.6875;941.3359;;;;
2023/09/06 09:43:00;;;;;;;3.3;2.9;;;;;;;25.19;59.28223;941.3094;;;;
2023/09/06 09:45:25;;;;;;;3.4;2.7;;;;;;;25.18;58.06543;941.3342;;;;
2023/09/06 09:47:50;;;;;;;3.8;3;;;;;;;24.95;62.68457;941.3702;;;;
2023/09/06 09:50:17;;;;;;;3.2;2.9;;;;;;;25.1;59.17578;941.3457;;;;
2023/09/06 09:52:42;;;;;;;3;2.8;;;;;;;25.14;64.10352;941.3596;;;;
2023/09/06 09:55:13;;;;;;;5.2;3.1;;;;;;;25.15;61.27246;941.3422;;;;
2023/09/06 09:57:37;;;;;;;3.1;2.7;;;;;;;25.25;59.83398;941.3063;;;;
2023/09/06 10:00:03;;;;;;;3.1;2.6;;;;;;;25.75;57.53613;941.2651;;;;
2023/09/06 10:02:29;;;;;;;4;2.8;;;;;;;25.83;57.97266;941.2902;;;;
2023/09/06 10:04:54;;;;;;;3.2;2.9;;;;;;;25.75;58.31738;941.3122;;;;
2023/09/06 10:07:21;;;;;;;3.2;2.8;;;;;;;25.83;58.73926;941.3367;;;;
2023/09/06 10:09:46;;;;;;;3.5;2.8;;;;;;;26.11;57.52246;941.3786;;;;
2023/09/06 10:12:11;;;;;;;3.1;2.8;;;;;;;26.51;57.63379;941.351;;;;
2023/09/06 10:14:37;;;;;;;3.3;2.7;;;;;;;26.71;54.83984;941.3708;;;;
2023/09/06 10:17:02;;;;;;;3.9;2.7;;;;;;;26.81;53.80957;941.3619;;;;
2023/09/06 10:19:29;;;;;;;3.6;2.6;;;;;;;27.33;53.29102;941.3682;;;;
2023/09/06 10:21:54;;;;;;;3;2.7;;;;;;;27.71;52.00684;941.3939;;;;
2023/09/06 10:24:19;;;;;;;2.8;2.5;;;;;;;27.93;50.98633;941.3934;;;;
2023/09/06 10:26:44;;;;;;;3;2.7;;;;;;;28.29;49.64941;941.3786;;;;
2023/09/06 10:29:09;;;;;;;3.5;2.7;;;;;;;28.3;49.95996;941.4224;;;;
2023/09/06 10:31:34;;;;;;;2.9;2.7;;;;;;;28.11;52.24316;941.3931;;;;
2023/09/06 10:33:59;;;;;;;3;2.7;;;;;;;27.72;52.92285;941.3997;;;;
2023/09/06 10:36:27;;;;;;;2.6;2.4;;;;;;;27.66;51.93066;941.4127;;;;
2023/09/06 10:38:49;;;;;;;3;2.5;;;;;;;27.72;53.36133;941.3246;;;;
2023/09/06 10:41:15;;;;;;;2.8;2.6;;;;;;;28.41;49.70996;941.3338;;;;
2023/09/06 10:43:40;;;;;;;3;2.7;;;;;;;28.7;50.81348;941.3262;;;;
2023/09/06 10:46:07;;;;;;;2.6;2.4;;;;;;;28.63;49.4248;941.3582;;;;
2023/09/06 10:48:32;;;;;;;4.3;2.8;;;;;;;28.48;52.91602;941.3115;;;;
2023/09/06 10:50:57;;;;;;;2.7;2.5;;;;;;;28.75;50.43848;941.3119;;;;
2023/09/06 10:53:25;;;;;;;2.9;2.6;;;;;;;29.49;46.69434;941.3155;;;;
2023/09/06 10:55:50;;;;;;;3.4;2.4;;;;;;;30.11;46.80664;941.2704;;;;
2023/09/06 10:58:16;;;;;;;3.1;2.6;;;;;;;30.49;46.48828;941.2916;;;;
2023/09/06 11:00:42;;;;;;;3.3;2.4;;;;;;;29.59;48.52832;941.2553;;;;
2023/09/06 11:03:06;;;;;;;2.8;2.6;;;;;;;30.39;45.40234;941.1859;;;;
2023/09/06 11:05:31;;;;;;;3.1;2.5;;;;;;;30.57;45.91016;941.142;;;;
2023/09/06 11:07:56;;;;;;;3.4;2.7;;;;;;;31.11;42.28125;941.1423;;;;
2023/09/06 11:10:22;;;;;;;3.1;2.8;;;;;;;31.34;42.24414;941.1111;;;;
2023/09/06 11:12:47;;;;;;;2.7;2.5;;;;;;;31.8;41.16016;941.0928;;;;
2023/09/06 11:15:14;;;;;;;2.5;2.3;;;;;;;32.78;40.70801;941.1353;;;;
2023/09/06 11:17:38;;;;;;;3;2.7;;;;;;;32.8;41.25098;941.1057;;;;
2023/09/06 11:20:09;;;;;;;2.9;2.6;;;;;;;33.99;37.75977;941.0975;;;;
2023/09/06 11:22:37;;;;;;;3.4;2.5;;;;;;;34.41;38.03516;941.0076;;;;
2023/09/06 11:25:04;;;;;;;2.9;2.5;;;;;;;35.03;37.51953;941.0397;;;;
2023/09/06 11:27:33;;;;;;;2.9;2.6;;;;;;;35.63;35.92578;941.0813;;;;
2023/09/06 11:29:52;;;;;;;3.4;2.7;;;;;;;34.61;38.18457;941.0859;;;;
2023/09/06 11:32:18;;;;;;;5.1;2.7;;;;;;;33.99;39.66113;941.0728;;;;
2023/09/06 11:34:43;;;;;;;2.6;2.4;;;;;;;35.1;35.7998;941.0451;;;;
2023/09/06 11:37:10;;;;;;;2.5;2.3;;;;;;;36.62;34.13965;941.014;;;;
2023/09/06 11:39:34;;;;;;;2.8;2.6;;;;;;;36.98;32.0459;941.0756;;;;
2023/09/06 11:42:00;;;;;;;3;2.5;;;;;;;37.9;31.57617;940.9984;;;;
2023/09/06 11:44:23;;;;;;;2.7;2.5;;;;;;;38.42;30.33594;940.9627;;;;
2023/09/06 11:46:49;;;;;;;2.9;2.6;;;;;;;39.65;28.55273;940.9836;;;;
2023/09/06 11:49:49;;;;;;;3.1;2.6;;;;;;;39.37;29.09473;940.9275;;;;
2023/09/06 11:52:13;;;;;;;2.6;2.4;;;;;;;38.99;29.55762;940.913;;;;
2023/09/06 11:54:39;;;;;;;5.2;2.4;;;;;;;36.36;34.80957;940.8635;;;;
2023/09/06 11:57:08;;;;;;;2.7;2.5;;;;;;;35.57;34.8584;940.8279;;;;
2023/09/06 11:59:32;;;;;;;2.7;2.4;;;;;;;35.47;35.12891;940.8931;;;;
2023/09/06 12:02:00;;;;;;;3.5;2.5;;;;;;;36.7;32.40234;940.8948;;;;
2023/09/06 12:04:22;;;;;;;3.7;2.7;;;;;;;35.59;35.36719;940.829;;;;
2023/09/06 12:06:49;;;;;;;2.8;2.6;;;;;;;37.07;33.07031;940.8401;;;;
2023/09/06 12:09:15;;;;;;;3.1;2.7;;;;;;;38.12;30.95996;940.8739;;;;
2023/09/06 12:11:37;;;;;;;2.9;2.5;;;;;;;38.8;30.1416;940.8134;;;;
2023/09/06 12:14:02;;;;;;;4.3;2.5;;;;;;;38.03;31.24609;940.8163;;;;
2023/09/06 12:16:28;;;;;;;3.1;2.8;;;;;;;38.14;30.4873;940.7953;;;;
2023/09/06 12:18:53;;;;;;;3.7;2.8;;;;;;;37.73;32.35449;940.8176;;;;
2023/09/06 12:21:21;;;;;;;2.7;2.4;;;;;;;37.2;32.2793;940.7527;;;;
2023/09/06 12:23:45;;;;;;;4.1;2.9;;;;;;;37.38;31.9043;940.7441;;;;
2023/09/06 12:26:12;;;;;;;4.1;2.7;;;;;;;38.22;30.2373;940.713;;;;
2023/09/06 12:28:36;;;;;;;3.6;2.9;;;;;;;38.09;30.86035;940.7586;;;;
2023/09/06 12:31:05;;;;;;;3.9;2.9;;;;;;;36.43;34.42773;940.7211;;;;
2023/09/06 12:33:29;;;;;;;2.9;2.6;;;;;;;35.9;34.83594;940.704;;;;
2023/09/06 12:36:00;;;;;;;3.6;2.8;;;;;;;35.67;35.31348;940.6688;;;;
2023/09/06 12:38:21;;;;;;;3.2;2.9;;;;;;;35.76;35.44043;940.6509;;;;
2023/09/06 12:40:47;;;;;;;4.9;3;;;;;;;35.01;37.06055;940.6552;;;;
2023/09/06 12:43:12;;;;;;;3.2;2.8;;;;;;;35.61;36.07031;940.5872;;;;
2023/09/06 12:45:39;;;;;;;3;2.7;;;;;;;36.34;34.72363;940.6744;;;;
2023/09/06 12:48:05;;;;;;;3.1;2.8;;;;;;;35.89;35.06445;940.5712;;;;
2023/09/06 12:50:32;;;;;;;3.7;3;;;;;;;35.47;36.21582;940.6219;;;;
2023/09/06 12:52:57;;;;;;;2.9;2.6;;;;;;;36.51;35.19629;940.6284;;;;
2023/09/06 12:55:23;;;;;;;4.2;3.2;;;;;;;37.45;33.4502;940.6869;;;;
2023/09/06 12:57:48;;;;;;;4.8;3.1;;;;;;;37.07;33.41016;940.6358;;;;
2023/09/06 13:00:16;;;;;;;3.7;3;;;;;;;37.05;34.15918;940.5772;;;;
2023/09/06 13:02:42;;;;;;;3.4;2.7;;;;;;;36.43;35.7959;940.5773;;;;
2023/09/06 13:05:11;;;;;;;4.6;3.4;;;;;;;35.53;36.49805;940.5934;;;;
2023/09/06 13:07:37;;;;;;;2.9;2.7;;;;;;;36.08;35.05469;940.5408;;;;
2023/09/06 13:10:02;;;;;;;3.2;2.9;;;;;;;36.2;35.89844;940.5494;;;;
2023/09/06 13:12:34;;;;;;;3.8;3.2;;;;;;;35.57;37.20215;940.4967;;;;
2023/09/06 13:15:00;;;;;;;3.3;3;;;;;;;34.87;37.62793;940.4656;;;;
2023/09/06 13:17:25;;;;;;;3.6;3.3;;;;;;;34.56;39.13184;940.3492;;;;
2023/09/06 13:19:50;;;;;;;3.2;2.9;;;;;;;33.81;41.69043;940.418;;;;
2023/09/06 13:22:16;;;;;;;3.1;2.8;;;;;;;34.27;39.52832;940.3787;;;;
2023/09/06 13:24:41;;;;;;;4.5;2.9;;;;;;;34.04;40.00293;940.3642;;;;
2023/09/06 13:27:07;;;;;;;4.7;3.5;;;;;;;33.83;40.05762;940.3622;;;;
2023/09/06 13:29:31;;;;;;;3.5;3.2;;;;;;;33.82;40.32031;940.288;;;;
2023/09/06 13:31:59;;;;;;;3.7;3.1;;;;;;;34.12;40.50293;940.3383;;;;
2023/09/06 13:34:23;;;;;;;3.6;3.1;;;;;;;34.3;39.19434;940.3372;;;;
2023/09/06 13:36:50;;;;;;;3.7;3.3;;;;;;;33.01;41.41406;940.3156;;;;
2023/09/06 13:39:15;;;;;;;3.5;3.1;;;;;;;31.97;43.7041;940.3063;;;;
2023/09/06 13:41:40;;;;;;;3.6;3.3;;;;;;;31.31;44.90918;940.2813;;;;
2023/09/06 13:44:05;;;;;;;4.4;3;;;;;;;30.5;46.75098;940.2697;;;;
2023/09/06 13:46:32;;;;;;;3.5;3.2;;;;;;;29.98;49.15527;940.1981;;;;
2023/09/06 13:48:59;;;;;;;3.2;2.9;;;;;;;29.97;48.14063;940.2123;;;;
2023/09/06 13:51:25;;;;;;;5;3.4;;;;;;;29.63;48.96289;940.2152;;;;
2023/09/06 13:53:52;;;;;;;3.7;3.3;;;;;;;29.25;51.17285;940.1802;;;;
2023/09/06 13:56:16;;;;;;;3.8;3.4;;;;;;;28.83;51.42188;940.2625;;;;
2023/09/06 13:58:42;;;;;;;3.8;3.5;;;;;;;28.94;52.14941;940.2505;;;;
2023/09/06 14:01:07;;;;;;;3.3;3;;;;;;;28.99;53.21387;940.2341;;;;
2023/09/06 14:03:33;;;;;;;4.9;3.8;;;;;;;28.9;52.94238;940.2172;;;;
2023/09/06 14:05:58;;;;;;;4.8;3.1;;;;;;;28.64;53.01953;940.1816;;;;
2023/09/06 14:08:25;;;;;;;3.7;3.4;;;;;;;28.43;53.73145;940.1955;;;;
2023/09/06 14:10:50;;;;;;;3.4;3.1;;;;;;;28.22;54.7998;940.1576;;;;
2023/09/06 14:13:16;;;;;;;3.7;3.1;;;;;;;28.39;54.33203;940.1903;;;;
2023/09/06 14:15:42;;;;;;;4.1;3.3;;;;;;;28.5;54.19141;940.1809;;;;
2023/09/06 14:18:09;;;;;;;4.5;3.4;;;;;;;28.45;53.45996;940.1881;;;;
2023/09/06 14:20:36;;;;;;;3.6;3.3;;;;;;;28.6;53.5498;940.0931;;;;
2023/09/06 14:23:00;;;;;;;3.9;3.3;;;;;;;28.49;55.27246;940.0875;;;;
2023/09/06 14:25:26;;;;;;;9.1;3.2;;;;;;;28.19;55.80664;940.0574;;;;
2023/09/06 14:27:51;;;;;;;3.8;3.4;;;;;;;28.2;55.1543;940.0916;;;;
2023/09/06 14:30:19;;;;;;;3.8;3.2;;;;;;;28.22;54.82227;940.0569;;;;
2023/09/06 14:32:44;;;;;;;4.3;3.9;;;;;;;28.19;55.72363;940.0836;;;;
2023/09/06 14:35:12;;;;;;;3.9;3.5;;;;;;;28.12;55.30957;940.0535;;;;
2023/09/06 14:37:37;;;;;;;4.5;3.4;;;;;;;27.75;56.90234;940.0482;;;;
2023/09/06 14:40:02;;;;;;;5.6;3.3;;;;;;;27.53;57.8125;940.1246;;;;
2023/09/06 14:42:32;;;;;;;3.9;3.5;;;;;;;27.4;58.49609;940.0181;;;;
2023/09/06 14:44:53;;;;;;;3.7;3.4;;;;;;;27.59;57.16797;939.9904;;;;
2023/09/06 14:47:21;;;;;;;3.9;3.5;;;;;;;27.72;56.94629;940.0538;;;;
2023/09/06 14:49:46;;;;;;;3.9;3.4;;;;;;;27.66;56.4043;940.0588;;;;
2023/09/06 14:52:11;;;;;;;4.6;3.5;;;;;;;27.71;56.26855;940.0354;;;;
2023/09/06 14:54:36;;;;;;;5;3.6;;;;;;;27.67;57.59277;940.145;;;;
2023/09/06 14:57:01;;;;;;;3.6;3.3;;;;;;;27.53;56.91016;940.0421;;;;
2023/09/06 14:59:27;;;;;;;4.4;3.4;;;;;;;27.46;57.89746;940.0861;;;;
2023/09/06 15:01:53;;;;;;;5.3;3.7;;;;;;;27.55;57.68555;940.1258;;;;
2023/09/06 15:04:19;;;;;;;6.9;3.7;;;;;;;27.36;57.2207;940.0598;;;;
2023/09/06 15:06:49;;;;;;;3.8;3.4;;;;;;;27.06;58.52246;940.019;;;;
2023/09/06 15:09:15;;;;;;;5.2;3.7;;;;;;;27.06;59.06934;940.0499;;;;
2023/09/06 15:11:40;;;;;;;4.2;3.3;;;;;;;27.17;59.2832;940.0491;;;;
2023/09/06 15:14:07;;;;;;;3.7;3.3;;;;;;;27.27;57.83789;940.0418;;;;
2023/09/06 15:16:32;;;;;;;3.9;3.4;;;;;;;27.19;57.94727;940.0792;;;;
2023/09/06 15:18:57;;;;;;;4.9;3.5;;;;;;;26.98;58.57129;940.0762;;;;
2023/09/06 15:21:22;;;;;;;5.4;3.6;;;;;;;27.04;57.38184;940.0567;;;;
2023/09/06 15:23:49;;;;;;;4.1;3.6;;;;;;;27.06;58.80762;940.0416;;;;
2023/09/06 15:26:14;;;;;;;4;3.7;;;;;;;26.74;58.76465;940.0156;;;;
2023/09/06 15:28:41;;;;;;;4;3.6;;;;;;;26.78;58.52148;939.9833;;;;
2023/09/06 15:31:06;;;;;;;3.8;3.4;;;;;;;26.83;58.68262;940.0151;;;;